createdAt,value
2019-04-01T00:01:28.107Z,7.70
2019-04-01T00:03:56.785Z,7.70
2019-04-01T00:06:25.408Z,7.67
2019-04-01T00:08:54.012Z,7.66
2019-04-01T00:11:22.646Z,7.60
2019-04-01T00:13:51.114Z,7.56
2019-04-01T00:16:19.587Z,7.57
2019-04-01T00:19:02.061Z,7.53
2019-04-01T00:21:18.477Z,7.46
2019-04-01T00:23:46.970Z,7.42
2019-04-01T00:26:16.722Z,7.38
2019-04-01T00:28:45.352Z,7.35
2019-04-01T00:31:13.994Z,7.34
2019-04-01T00:33:42.459Z,7.38
2019-04-01T00:36:10.935Z,7.37
2019-04-01T00:38:39.550Z,7.37
2019-04-01T00:41:08.127Z,7.36
2019-04-01T00:43:41.324Z,7.36
2019-04-01T00:46:11.503Z,7.34
2019-04-01T00:48:40.040Z,7.29
2019-04-01T00:51:08.577Z,7.30
2019-04-01T00:53:37.080Z,7.29
2019-04-01T00:56:05.553Z,7.27
2019-04-01T00:58:34.157Z,7.24
2019-04-01T01:01:02.829Z,7.23
2019-04-01T01:03:33.511Z,7.23
2019-04-01T01:06:02.041Z,7.22
2019-04-01T01:08:30.587Z,7.20
2019-04-01T01:10:59.056Z,7.19
2019-04-01T01:13:27.584Z,7.20
2019-04-01T01:15:56.220Z,7.20
2019-04-01T01:18:24.755Z,7.15
2019-04-01T01:20:53.479Z,7.13
2019-04-01T01:23:22.014Z,7.09
2019-04-01T01:25:50.549Z,7.03
2019-04-01T01:28:19.176Z,7.01
2019-04-01T01:30:47.802Z,7.00
2019-04-01T01:33:16.340Z,7.00
2019-04-01T01:35:44.949Z,6.98
2019-04-01T01:38:13.557Z,6.92
2019-04-01T01:40:42.091Z,6.92
2019-04-01T01:43:10.565Z,6.90
2019-04-01T01:45:39.176Z,6.86
2019-04-01T01:48:07.638Z,6.75
2019-04-01T01:50:37.640Z,6.75
2019-04-01T01:53:07.648Z,6.68
2019-04-01T01:55:37.662Z,6.64
2019-04-01T01:58:10.852Z,6.63
2019-04-01T02:00:40.917Z,6.61
2019-04-01T02:03:09.448Z,6.56
2019-04-01T02:05:38.095Z,6.57
2019-04-01T02:08:06.846Z,6.55
2019-04-01T02:10:35.412Z,6.55
2019-04-01T02:13:07.221Z,6.52
2019-04-01T02:15:35.789Z,6.47
2019-04-01T02:18:04.435Z,6.42
2019-04-01T02:20:36.005Z,6.41
2019-04-01T02:23:04.615Z,6.40
2019-04-01T02:25:33.177Z,6.34
2019-04-01T02:28:01.759Z,6.34
2019-04-01T02:30:30.371Z,6.35
2019-04-01T02:32:58.869Z,6.36
2019-04-01T02:35:27.524Z,6.33
2019-04-01T02:37:56.011Z,6.27
2019-04-01T02:40:24.542Z,6.23
2019-04-01T02:42:53.091Z,6.25
2019-04-01T02:45:21.770Z,6.22
2019-04-01T02:47:50.386Z,6.23
2019-04-01T02:50:18.993Z,6.23
2019-04-01T02:52:47.596Z,6.16
2019-04-01T02:55:16.127Z,6.12
2019-04-01T02:57:44.740Z,6.05
2019-04-01T03:00:13.778Z,5.96
2019-04-01T03:02:43.826Z,5.90
2019-04-01T03:05:12.471Z,5.82
2019-04-01T03:07:41.046Z,5.75
2019-04-01T03:10:09.782Z,5.71
2019-04-01T03:12:38.290Z,5.67
2019-04-01T03:15:07.329Z,5.57
2019-04-01T03:17:35.896Z,5.54
2019-04-01T03:20:06.789Z,5.47
2019-04-01T03:22:35.432Z,5.40
2019-04-01T03:25:04.830Z,5.37
2019-04-01T03:27:34.895Z,5.30
2019-04-01T03:30:04.970Z,5.28
2019-04-01T03:32:33.598Z,5.20
2019-04-01T03:35:02.351Z,5.19
2019-04-01T03:37:31.238Z,5.21
2019-04-01T03:39:59.808Z,5.18
2019-04-01T03:42:28.269Z,5.09
2019-04-01T03:44:56.879Z,5.08
2019-04-01T03:47:25.417Z,5.05
2019-04-01T03:49:53.885Z,5.02
2019-04-01T03:52:22.507Z,5.00
2019-04-01T03:54:51.111Z,4.94
2019-04-01T03:57:19.670Z,4.94
2019-04-01T03:59:48.249Z,4.93
2019-04-01T04:02:16.867Z,4.93
2019-04-01T04:04:45.535Z,4.94
2019-04-01T04:07:14.148Z,4.88
2019-04-01T04:09:42.750Z,4.82
2019-04-01T04:12:11.285Z,4.74
2019-04-01T04:14:39.997Z,4.65
2019-04-01T04:17:08.566Z,4.59
2019-04-01T04:19:37.173Z,4.54
2019-04-01T04:22:05.709Z,4.53
2019-04-01T04:24:34.353Z,4.48
2019-04-01T04:27:02.847Z,4.50
2019-04-01T04:29:31.486Z,4.48
2019-04-01T04:32:00.101Z,4.44
2019-04-01T04:34:28.742Z,4.37
2019-04-01T04:36:57.392Z,4.32
2019-04-01T04:39:25.843Z,4.28
2019-04-01T04:41:54.443Z,4.23
2019-04-01T04:44:23.090Z,4.21
2019-04-01T04:46:51.716Z,4.19
2019-04-01T04:49:24.682Z,4.14
2019-04-01T04:51:53.221Z,4.11
2019-04-01T04:54:21.838Z,4.06
2019-04-01T04:56:50.444Z,4.05
2019-04-01T04:59:19.052Z,4.02
2019-04-01T05:01:47.581Z,4.03
2019-04-01T05:04:16.259Z,4.02
2019-04-01T05:06:44.888Z,4.00
2019-04-01T05:09:13.385Z,3.97
2019-04-01T05:11:42.091Z,3.93
2019-04-01T05:14:10.573Z,3.92
2019-04-01T05:16:39.114Z,3.89
2019-04-01T05:19:08.262Z,3.91
2019-04-01T05:21:37.044Z,3.93
2019-04-01T05:24:05.646Z,3.93
2019-04-01T05:26:36.062Z,3.91
2019-04-01T05:29:05.820Z,3.93
2019-04-01T05:31:35.771Z,3.93
2019-04-01T05:34:04.942Z,3.93
2019-04-01T05:36:34.217Z,3.95
2019-04-01T05:39:03.022Z,3.99
2019-04-01T05:41:33.298Z,4.10
2019-04-01T05:44:02.631Z,4.30
2019-04-01T05:46:31.254Z,4.48
2019-04-01T05:48:59.939Z,4.69
2019-04-01T05:51:29.345Z,4.95
2019-04-01T05:53:57.966Z,5.20
2019-04-01T05:56:26.565Z,5.42
2019-04-01T05:58:55.205Z,5.62
2019-04-01T06:01:25.518Z,5.59
2019-04-01T06:03:54.162Z,5.57
2019-04-01T06:06:22.703Z,5.65
2019-04-01T06:08:51.319Z,5.83
2019-04-01T06:11:19.946Z,6.09
2019-04-01T06:13:48.558Z,6.13
2019-04-01T06:16:17.461Z,6.19
2019-04-01T06:18:46.090Z,6.46
2019-04-01T06:21:17.717Z,6.62
2019-04-01T06:23:47.848Z,6.75
2019-04-01T06:26:17.881Z,6.87
2019-04-01T06:28:46.561Z,6.97
2019-04-01T06:31:17.157Z,7.09
2019-04-01T06:33:45.692Z,7.17
2019-04-01T06:36:14.306Z,7.22
2019-04-01T06:38:42.924Z,7.20
2019-04-01T06:41:11.523Z,7.20
2019-04-01T06:43:40.172Z,7.42
2019-04-01T06:46:08.773Z,7.58
2019-04-01T06:48:37.380Z,7.80
2019-04-01T06:51:06.010Z,8.14
2019-04-01T06:53:34.607Z,8.19
2019-04-01T06:56:07.933Z,8.30
2019-04-01T06:58:34.144Z,8.48
2019-04-01T07:01:02.745Z,8.87
2019-04-01T07:03:31.282Z,9.11
2019-04-01T07:06:00.553Z,9.15
2019-04-01T07:08:29.158Z,9.28
2019-04-01T07:10:58.536Z,9.41
2019-04-01T07:13:27.141Z,9.45
2019-04-01T07:15:55.739Z,9.51
2019-04-01T07:18:24.340Z,9.51
2019-04-01T07:20:52.969Z,9.65
2019-04-01T07:23:21.567Z,9.76
2019-04-01T07:25:50.201Z,9.38
2019-04-01T07:28:19.137Z,9.50
2019-04-01T07:30:47.679Z,9.26
2019-04-01T07:33:16.646Z,9.31
2019-04-01T07:35:46.785Z,9.21
2019-04-01T07:38:15.899Z,9.44
2019-04-01T07:40:44.615Z,9.69
2019-04-01T07:43:14.939Z,9.78
2019-04-01T07:45:43.539Z,9.80
2019-04-01T07:48:12.720Z,9.72
2019-04-01T07:50:41.701Z,9.58
2019-04-01T07:53:12.567Z,9.72
2019-04-01T07:55:41.251Z,9.63
2019-04-01T07:58:09.902Z,9.71
2019-04-01T08:00:38.572Z,9.74
2019-04-01T08:03:07.267Z,9.42
2019-04-01T08:05:39.677Z,9.24
2019-04-01T08:08:08.600Z,9.62
2019-04-01T08:10:37.164Z,9.67
2019-04-01T08:13:05.801Z,9.67
2019-04-01T08:15:34.405Z,9.56
2019-04-01T08:18:03.042Z,9.83
2019-04-01T08:20:31.648Z,10.02
2019-04-01T08:23:00.301Z,10.27
2019-04-01T08:25:28.917Z,10.54
2019-04-01T08:27:57.485Z,10.40
2019-04-01T08:30:26.053Z,10.20
2019-04-01T08:32:54.784Z,10.01
2019-04-01T08:35:23.344Z,10.01
2019-04-01T08:37:51.948Z,10.15
2019-04-01T08:40:23.254Z,9.91
2019-04-01T08:42:51.920Z,9.96
2019-04-01T08:45:20.592Z,10.02
2019-04-01T08:47:49.205Z,10.19
2019-04-01T08:50:18.430Z,10.47
2019-04-01T08:52:47.033Z,10.43
2019-04-01T08:55:15.640Z,10.57
2019-04-01T08:57:44.286Z,10.36
2019-04-01T09:00:12.960Z,10.35
2019-04-01T09:02:41.565Z,10.51
2019-04-01T09:05:10.276Z,10.56
2019-04-01T09:07:38.896Z,10.91
2019-04-01T09:10:10.383Z,10.76
2019-04-01T09:12:40.222Z,10.46
2019-04-01T09:15:10.152Z,10.62
2019-04-01T09:17:40.418Z,10.59
2019-04-01T09:20:09.654Z,10.69
2019-04-01T09:22:38.302Z,10.75
2019-04-01T09:25:07.304Z,10.93
2019-04-01T09:27:35.841Z,11.16
2019-04-01T09:30:07.147Z,10.86
2019-04-01T09:32:35.782Z,10.83
2019-04-01T09:35:06.993Z,10.42
2019-04-01T09:37:35.606Z,10.36
2019-04-01T09:40:06.810Z,10.57
2019-04-01T09:42:35.380Z,10.71
2019-04-01T09:45:06.170Z,10.78
2019-04-01T09:47:34.738Z,10.99
2019-04-01T09:50:03.635Z,10.92
2019-04-01T09:52:32.340Z,10.92
2019-04-01T09:55:00.944Z,10.81
2019-04-01T09:57:29.548Z,10.98
2019-04-01T10:00:01.214Z,10.70
2019-04-01T10:02:32.038Z,10.87
2019-04-01T10:05:00.381Z,10.41
2019-04-01T10:07:28.913Z,10.57
2019-04-01T10:09:57.454Z,10.37
2019-04-01T10:12:25.998Z,10.23
2019-04-01T10:14:54.696Z,10.46
2019-04-01T10:17:23.301Z,10.41
2019-04-01T10:19:51.971Z,10.41
2019-04-01T10:22:20.508Z,10.29
2019-04-01T10:24:49.084Z,10.23
2019-04-01T10:27:17.693Z,10.21
2019-04-01T10:29:47.388Z,9.94
2019-04-01T10:32:16.005Z,9.87
2019-04-01T10:34:44.467Z,9.64
2019-04-01T10:37:13.060Z,9.50
2019-04-01T10:39:41.666Z,9.53
2019-04-01T10:42:10.228Z,9.77
2019-04-01T10:44:38.829Z,9.83
2019-04-01T10:47:07.521Z,9.78
2019-04-01T10:49:36.131Z,9.46
2019-04-01T10:52:04.771Z,9.44
2019-04-01T10:54:33.344Z,9.50
2019-04-01T10:57:02.378Z,9.44
2019-04-01T10:59:30.977Z,9.41
2019-04-01T11:01:59.665Z,9.49
2019-04-01T11:04:28.345Z,9.58
2019-04-01T11:06:57.011Z,9.54
2019-04-01T11:09:37.635Z,9.61
2019-04-01T11:11:55.989Z,9.52
2019-04-01T11:14:25.015Z,9.80
2019-04-01T11:16:53.609Z,9.87
2019-04-01T11:19:22.277Z,10.13
2019-04-01T11:21:50.840Z,10.19
2019-04-01T11:24:19.421Z,10.17
2019-04-01T11:26:48.034Z,10.20
2019-04-01T11:29:16.639Z,10.40
2019-04-01T11:31:45.263Z,10.39
2019-04-01T11:34:13.879Z,10.64
2019-04-01T11:36:43.238Z,10.83
2019-04-01T11:39:13.487Z,10.99
2019-04-01T11:41:44.166Z,10.78
2019-04-01T11:44:12.741Z,11.08
2019-04-01T11:46:41.271Z,11.28
2019-04-01T11:49:09.887Z,11.03
2019-04-01T11:51:39.934Z,10.74
2019-04-01T11:54:10.096Z,10.66
2019-04-01T11:56:39.101Z,10.50
2019-04-01T11:59:08.512Z,10.78
2019-04-01T12:01:37.398Z,11.08
2019-04-01T12:04:06.022Z,10.97
2019-04-01T12:06:34.702Z,10.86
2019-04-01T12:09:04.867Z,10.81
2019-04-01T12:11:35.706Z,11.00
2019-04-01T12:14:05.206Z,11.06
2019-04-01T12:16:34.057Z,11.03
2019-04-01T12:19:02.771Z,10.93
2019-04-01T12:21:31.972Z,10.51
2019-04-01T12:24:01.012Z,10.50
2019-04-01T12:26:29.611Z,10.29
2019-04-01T12:28:58.256Z,10.38
2019-04-01T12:31:26.890Z,10.25
2019-04-01T12:33:55.524Z,10.01
2019-04-01T12:36:24.139Z,10.00
2019-04-01T12:38:53.872Z,10.03
2019-04-01T12:41:22.777Z,9.88
2019-04-01T12:43:51.341Z,9.70
2019-04-01T12:46:19.894Z,9.55
2019-04-01T12:48:48.454Z,9.34
2019-04-01T12:51:17.056Z,9.23
2019-04-01T12:53:45.979Z,9.22
2019-04-01T12:56:14.793Z,9.21
2019-04-01T12:58:43.277Z,9.16
2019-04-01T13:01:11.818Z,9.08
2019-04-01T13:03:40.457Z,9.03
2019-04-01T13:06:09.054Z,8.97
2019-04-01T13:08:37.691Z,8.99
2019-04-01T13:11:06.345Z,8.95
2019-04-01T13:13:34.912Z,8.92
2019-04-01T13:16:03.446Z,8.84
2019-04-01T13:18:32.091Z,8.82
2019-04-01T13:21:00.557Z,8.88
2019-04-01T13:23:29.155Z,8.90
2019-04-01T13:25:57.751Z,8.90
2019-04-01T13:28:26.397Z,8.87
2019-04-01T13:30:55.198Z,8.90
2019-04-01T13:33:24.001Z,8.91
2019-04-01T13:35:55.387Z,8.92
2019-04-01T13:38:23.916Z,8.87
2019-04-01T13:40:52.543Z,8.82
2019-04-01T13:43:21.086Z,8.70
2019-04-01T13:45:50.376Z,8.66
2019-04-01T13:48:19.604Z,8.62
2019-04-01T13:50:48.720Z,8.63
2019-04-01T13:53:17.249Z,8.59
2019-04-01T13:55:45.783Z,8.61
2019-04-01T13:58:17.430Z,8.60
2019-04-01T14:00:44.715Z,8.55
2019-04-01T14:03:13.285Z,8.47
2019-04-01T14:05:41.886Z,8.45
2019-04-01T14:08:10.419Z,8.42
2019-04-01T14:10:40.604Z,8.37
2019-04-01T14:13:09.195Z,8.36
2019-04-01T14:15:37.732Z,8.39
2019-04-01T14:18:06.370Z,8.42
2019-04-01T14:20:34.923Z,8.46
2019-04-01T14:23:03.517Z,8.51
2019-04-01T14:25:34.771Z,8.59
2019-04-01T14:28:04.827Z,8.59
2019-04-01T14:30:32.780Z,8.61
2019-04-01T14:33:02.947Z,8.56
2019-04-01T14:35:31.756Z,8.48
2019-04-01T14:38:00.212Z,8.45
2019-04-01T14:40:32.561Z,8.46
2019-04-01T14:43:00.776Z,8.41
2019-04-01T14:45:29.576Z,8.40
2019-04-01T14:47:58.311Z,8.32
2019-04-01T14:50:26.858Z,8.28
2019-04-01T14:52:55.459Z,8.22
2019-04-01T14:55:23.966Z,8.20
2019-04-01T14:57:52.488Z,8.23
2019-04-01T15:00:21.255Z,8.26
2019-04-01T15:02:49.783Z,8.22
2019-04-01T15:05:18.402Z,8.20
2019-04-01T15:07:47.354Z,8.18
2019-04-01T15:10:16.495Z,8.18
2019-04-01T15:12:45.087Z,8.14
2019-04-01T15:15:14.439Z,8.14
2019-04-01T15:17:42.971Z,8.11
2019-04-01T15:20:12.495Z,8.04
2019-04-01T15:22:40.973Z,8.02
2019-04-01T15:25:09.569Z,7.96
2019-04-01T15:27:38.068Z,7.98
2019-04-01T15:30:13.831Z,7.97
2019-04-01T15:32:40.516Z,7.92
2019-04-01T15:35:09.278Z,7.88
2019-04-01T15:37:37.873Z,7.86
2019-04-01T15:40:09.606Z,7.84
2019-04-01T15:42:38.097Z,7.81
2019-04-01T15:45:06.808Z,7.78
2019-04-01T15:47:35.387Z,7.74
2019-04-01T15:50:05.825Z,7.73
2019-04-01T15:52:34.618Z,7.71
2019-04-01T15:55:05.066Z,7.70
2019-04-01T15:57:33.607Z,7.66
2019-04-01T16:00:03.207Z,7.59
2019-04-01T16:02:32.095Z,7.57
2019-04-01T16:05:00.647Z,7.55
2019-04-01T16:07:29.304Z,7.51
2019-04-01T16:09:57.750Z,7.50
2019-04-01T16:12:26.271Z,7.45
2019-04-01T16:14:54.869Z,7.40
2019-04-01T16:17:23.430Z,7.38
2019-04-01T16:19:52.066Z,7.35
2019-04-01T16:22:21.923Z,7.33
2019-04-01T16:24:50.624Z,7.29
2019-04-01T16:27:19.243Z,7.24
2019-04-01T16:29:47.799Z,7.20
2019-04-01T16:32:16.263Z,7.17
2019-04-01T16:34:44.761Z,7.15
2019-04-01T16:37:13.366Z,7.08
2019-04-01T16:39:41.929Z,7.04
2019-04-01T16:42:10.474Z,6.98
2019-04-01T16:44:39.012Z,6.94
2019-04-01T16:47:07.641Z,6.90
2019-04-01T16:49:36.598Z,6.88
2019-04-01T16:52:05.458Z,6.85
2019-04-01T16:54:33.990Z,6.82
2019-04-01T16:57:02.634Z,6.78
2019-04-01T16:59:31.196Z,6.71
2019-04-01T17:01:59.841Z,6.65
2019-04-01T17:04:28.431Z,6.60
2019-04-01T17:06:57.017Z,6.56
2019-04-01T17:09:25.712Z,6.50
2019-04-01T17:11:54.501Z,6.43
2019-04-01T17:14:24.204Z,6.39
2019-04-01T17:16:53.350Z,6.34
2019-04-01T17:19:21.823Z,6.28
2019-04-01T17:21:50.419Z,6.23
2019-04-01T17:24:19.001Z,6.15
2019-04-01T17:27:11.974Z,6.08
2019-04-01T17:29:43.117Z,6.03
2019-04-01T17:32:11.712Z,5.95
2019-04-01T17:34:40.324Z,5.90
2019-04-01T17:37:09.275Z,5.85
2019-04-01T17:39:38.231Z,5.80
2019-04-01T17:42:06.836Z,5.73
2019-04-01T17:44:35.369Z,5.66
2019-04-01T17:47:05.333Z,5.58
2019-04-01T17:49:34.672Z,5.50
2019-04-01T17:52:04.431Z,5.43
2019-04-01T17:54:33.410Z,5.37
2019-04-01T17:57:01.952Z,5.32
2019-04-01T17:59:30.482Z,5.27
2019-04-01T18:01:59.047Z,5.20
2019-04-01T18:04:27.649Z,5.14
2019-04-01T18:06:58.326Z,5.11
2019-04-01T18:09:26.510Z,5.06
2019-04-01T18:11:55.471Z,5.03
2019-04-01T18:14:24.037Z,4.95
2019-04-01T18:16:52.604Z,4.91
2019-04-01T18:19:21.067Z,4.86
2019-04-01T18:21:51.363Z,4.83
2019-04-01T18:24:19.989Z,4.79
2019-04-01T18:26:48.459Z,4.74
2019-04-01T18:29:17.071Z,4.69
2019-04-01T18:31:45.742Z,4.64
2019-04-01T18:34:14.293Z,4.57
2019-04-01T18:36:43.182Z,4.55
2019-04-01T18:39:11.836Z,4.50
2019-04-01T18:41:40.404Z,4.48
2019-04-01T18:44:08.876Z,4.41
2019-04-01T18:46:37.479Z,4.37
2019-04-01T18:49:06.089Z,4.33
2019-04-01T18:51:36.568Z,4.28
2019-04-01T18:54:05.225Z,4.23
2019-04-01T18:56:34.194Z,4.17
2019-04-01T18:59:02.798Z,4.10
2019-04-01T19:01:31.459Z,4.04
2019-04-01T19:03:59.930Z,4.01
2019-04-01T19:06:28.468Z,3.97
2019-04-01T19:09:08.722Z,3.96
2019-04-01T19:11:27.426Z,3.91
2019-04-01T19:13:56.000Z,3.89
2019-04-01T19:16:24.650Z,3.84
2019-04-01T19:18:53.336Z,3.82
2019-04-01T19:21:21.965Z,3.81
2019-04-01T19:23:50.514Z,3.75
2019-04-01T19:26:19.180Z,3.72
2019-04-01T19:28:49.370Z,3.68
2019-04-01T19:31:17.911Z,3.66
2019-04-01T19:33:46.388Z,3.60
2019-04-01T19:36:15.010Z,3.56
2019-04-01T19:38:43.704Z,3.50
2019-04-01T19:41:12.312Z,3.45
2019-04-01T19:43:40.881Z,3.44
2019-04-01T19:46:09.822Z,3.40
2019-04-01T19:48:38.747Z,3.36
2019-04-01T19:51:07.740Z,3.33
2019-04-01T19:53:36.419Z,3.28
2019-04-01T19:56:05.072Z,3.25
2019-04-01T19:58:33.672Z,3.20
2019-04-01T20:01:02.345Z,3.14
2019-04-01T20:03:30.949Z,3.09
2019-04-01T20:05:59.492Z,3.00
2019-04-01T20:08:28.099Z,2.97
2019-04-01T20:10:56.786Z,2.90
2019-04-01T20:13:25.361Z,2.84
2019-04-01T20:15:53.980Z,2.81
2019-04-01T20:18:22.603Z,2.80
2019-04-01T20:20:51.212Z,2.77
2019-04-01T20:23:19.940Z,2.75
2019-04-01T20:25:49.759Z,2.71
2019-04-01T20:28:18.856Z,2.69
2019-04-01T20:30:47.447Z,2.65
2019-04-01T20:33:18.158Z,2.62
2019-04-01T20:35:46.341Z,2.61
2019-04-01T20:38:14.976Z,2.59
2019-04-01T20:40:43.585Z,2.57
2019-04-01T20:43:12.186Z,2.51
2019-04-01T20:45:40.740Z,2.45
2019-04-01T20:48:09.404Z,2.43
2019-04-01T20:50:38.023Z,2.39
2019-04-01T20:53:06.674Z,2.34
2019-04-01T20:55:47.654Z,2.30
2019-04-01T20:58:05.582Z,2.23
2019-04-01T21:00:34.192Z,2.21
2019-04-01T21:03:02.832Z,2.21
2019-04-01T21:05:31.386Z,2.18
2019-04-01T21:07:59.920Z,2.18
2019-04-01T21:10:28.389Z,2.15
2019-04-01T21:12:56.934Z,2.12
2019-04-01T21:15:25.582Z,2.11
2019-04-01T21:17:54.114Z,2.10
2019-04-01T21:20:22.691Z,2.10
2019-04-01T21:22:51.250Z,2.07
2019-04-01T21:25:21.336Z,2.03
2019-04-01T21:27:49.981Z,2.03
2019-04-01T21:30:19.136Z,1.98
2019-04-01T21:32:48.697Z,1.98
2019-04-01T21:35:17.334Z,1.96
2019-04-01T21:37:45.934Z,1.94
2019-04-01T21:40:15.054Z,1.92
2019-04-01T21:42:43.660Z,1.86
2019-04-01T21:45:12.793Z,1.83
2019-04-01T21:47:41.702Z,1.81
2019-04-01T21:50:10.849Z,1.76
2019-04-01T21:52:39.428Z,1.74
2019-04-01T21:55:08.648Z,1.72
2019-04-01T21:57:37.281Z,1.67
2019-04-01T22:00:09.259Z,1.66
2019-04-01T22:02:37.921Z,1.62
2019-04-01T22:05:10.191Z,1.60
2019-04-01T22:07:38.723Z,1.57
2019-04-01T22:10:07.856Z,1.57
2019-04-01T22:12:36.564Z,1.56
2019-04-01T22:15:06.191Z,1.53
2019-04-01T22:17:34.858Z,1.51
2019-04-01T22:20:04.764Z,1.49
2019-04-01T22:22:33.360Z,1.45
2019-04-01T22:25:02.004Z,1.41
2019-04-01T22:27:30.568Z,1.40
2019-04-01T22:29:59.094Z,1.40
2019-04-01T22:32:27.730Z,1.37
2019-04-01T22:34:56.317Z,1.39
2019-04-01T22:37:27.336Z,1.39
2019-04-01T22:39:55.092Z,1.35
2019-04-01T22:42:23.700Z,1.33
2019-04-01T22:44:52.481Z,1.28
2019-04-01T22:47:20.977Z,1.20
2019-04-01T22:49:49.589Z,1.17
2019-04-01T22:52:18.205Z,1.14
2019-04-01T22:54:46.803Z,1.09
2019-04-01T22:57:15.482Z,1.07
2019-04-01T22:59:43.969Z,1.06
2019-04-01T23:02:13.465Z,1.05
2019-04-01T23:04:42.624Z,1.02
2019-04-01T23:07:11.309Z,1.01
2019-04-01T23:09:39.904Z,1.00
2019-04-01T23:12:08.557Z,1.01
2019-04-01T23:14:37.211Z,0.99
2019-04-01T23:17:05.917Z,0.99
2019-04-01T23:19:34.967Z,0.96
2019-04-01T23:22:04.631Z,0.96
2019-04-01T23:24:33.228Z,0.97
2019-04-01T23:27:02.014Z,0.95
2019-04-01T23:29:30.607Z,0.93
2019-04-01T23:31:59.236Z,0.91
2019-04-01T23:34:27.891Z,0.88
2019-04-01T23:36:56.422Z,0.87
2019-04-01T23:39:25.112Z,0.86
2019-04-01T23:41:53.726Z,0.87
2019-04-01T23:44:22.404Z,0.85
2019-04-01T23:46:51.987Z,0.80
2019-04-01T23:49:20.586Z,0.78
2019-04-01T23:51:49.130Z,0.76
2019-04-01T23:54:19.236Z,0.74
2019-04-01T23:56:47.834Z,0.73
2019-04-01T23:59:16.300Z,0.72
